createdAt,value
2018-11-10T00:02:13.106Z,24.80
2018-11-10T00:04:41.398Z,22.43
2018-11-10T00:07:09.688Z,19.13
2018-11-10T00:09:37.861Z,19.13
2018-11-10T00:12:06.254Z,24.57
2018-11-10T00:14:34.482Z,20.53
2018-11-10T00:17:02.662Z,19.13
2018-11-10T00:19:30.902Z,18.87
2018-11-10T00:22:04.469Z,18.47
2018-11-10T00:24:32.687Z,19.37
2018-11-10T00:27:01.324Z,17.03
2018-11-10T00:29:29.458Z,17.00
2018-11-10T00:31:57.918Z,17.57
2018-11-10T00:34:26.179Z,18.27
2018-11-10T00:36:54.298Z,17.73
2018-11-10T00:39:22.476Z,17.73
2018-11-10T00:41:50.809Z,17.53
2018-11-10T00:44:19.059Z,18.77
2018-11-10T00:46:47.261Z,18.30
2018-11-10T00:49:15.471Z,15.97
2018-11-10T00:51:43.712Z,19.80
2018-11-10T00:54:11.873Z,17.57
2018-11-10T00:56:40.021Z,18.93
2018-11-10T00:59:08.183Z,18.50
2018-11-10T01:01:36.407Z,18.23
2018-11-10T01:04:05.051Z,18.73
2018-11-10T01:06:33.235Z,19.57
2018-11-10T01:09:01.440Z,19.07
2018-11-10T01:11:29.609Z,19.00
2018-11-10T01:14:03.149Z,19.37
2018-11-10T01:16:31.332Z,19.97
2018-11-10T01:19:00.207Z,19.13
2018-11-10T01:21:28.416Z,19.30
2018-11-10T01:24:01.921Z,18.53
2018-11-10T01:26:30.101Z,19.07
2018-11-10T01:28:58.317Z,19.47
2018-11-10T01:31:26.476Z,18.53
2018-11-10T01:33:54.687Z,20.10
2018-11-10T01:36:22.837Z,20.67
2018-11-10T01:38:50.928Z,20.03
2018-11-10T01:41:19.102Z,18.93
2018-11-10T01:43:47.387Z,20.70
2018-11-10T01:46:15.667Z,19.13
2018-11-10T01:48:43.900Z,20.23
2018-11-10T01:51:12.120Z,17.97
2018-11-10T01:53:40.967Z,20.93
2018-11-10T01:56:09.210Z,20.30
2018-11-10T01:58:37.328Z,20.33
2018-11-10T02:01:05.780Z,20.10
2018-11-10T02:03:39.100Z,19.60
2018-11-10T02:06:07.273Z,20.57
2018-11-10T02:08:35.448Z,19.97
2018-11-10T02:11:03.711Z,19.73
2018-11-10T02:13:31.896Z,19.67
2018-11-10T02:16:00.017Z,20.80
2018-11-10T02:18:28.170Z,19.17
2018-11-10T02:20:56.360Z,18.87
2018-11-10T02:23:24.862Z,20.13
2018-11-10T02:25:53.160Z,18.03
2018-11-10T02:28:21.423Z,17.50
2018-11-10T02:30:49.583Z,19.20
2018-11-10T02:33:18.961Z,19.43
2018-11-10T02:35:47.155Z,19.83
2018-11-10T02:38:15.257Z,20.47
2018-11-10T02:40:43.410Z,19.73
2018-11-10T02:43:12.843Z,19.47
2018-11-10T02:45:40.980Z,19.57
2018-11-10T02:48:09.109Z,19.03
2018-11-10T02:50:37.303Z,21.10
2018-11-10T02:53:05.410Z,18.97
2018-11-10T02:55:33.639Z,18.07
2018-11-10T02:58:01.789Z,19.40
2018-11-10T03:00:29.976Z,19.80
2018-11-10T03:02:58.145Z,20.30
2018-11-10T03:05:26.267Z,19.27
2018-11-10T03:07:54.912Z,18.90
2018-11-10T03:10:23.069Z,18.57
2018-11-10T03:12:51.243Z,19.30
2018-11-10T03:15:22.340Z,18.37
2018-11-10T03:17:50.519Z,15.90
2018-11-10T03:20:19.345Z,19.20
2018-11-10T03:22:47.537Z,19.03
2018-11-10T03:25:15.701Z,19.43
2018-11-10T03:27:43.857Z,18.80
2018-11-10T03:30:12.112Z,19.17
2018-11-10T03:32:40.283Z,20.83
2018-11-10T03:35:09.141Z,20.03
2018-11-10T03:37:37.372Z,19.43
2018-11-10T03:40:07.668Z,19.57
2018-11-10T03:42:36.272Z,19.73
2018-11-10T03:45:04.916Z,20.17
2018-11-10T03:47:33.058Z,19.27
2018-11-10T03:50:01.236Z,18.90
2018-11-10T03:52:29.370Z,18.70
2018-11-10T03:54:57.617Z,19.57
2018-11-10T03:57:25.833Z,18.93
2018-11-10T03:59:53.926Z,19.30
2018-11-10T04:02:22.073Z,20.37
2018-11-10T04:04:50.235Z,18.20
2018-11-10T04:07:18.406Z,19.00
2018-11-10T04:09:46.520Z,18.17
2018-11-10T04:12:24.135Z,19.10
2018-11-10T04:14:52.300Z,18.80
2018-11-10T04:17:21.125Z,18.17
2018-11-10T04:19:49.299Z,18.60
2018-11-10T04:22:22.004Z,18.80
2018-11-10T04:24:50.191Z,18.80
2018-11-10T04:27:18.339Z,18.87
2018-11-10T04:29:46.570Z,19.07
2018-11-10T04:32:14.705Z,18.77
2018-11-10T04:34:43.168Z,19.30
2018-11-10T04:37:11.355Z,17.80
2018-11-10T04:39:39.477Z,18.83
2018-11-10T04:42:07.666Z,17.90
2018-11-10T04:44:35.868Z,18.23
2018-11-10T04:47:05.557Z,16.60
2018-11-10T04:49:33.769Z,17.20
2018-11-10T04:52:01.948Z,17.50
2018-11-10T04:54:30.119Z,16.73
2018-11-10T04:56:58.303Z,16.73
2018-11-10T04:59:26.461Z,17.27
2018-11-10T05:01:54.723Z,16.80
2018-11-10T05:04:22.881Z,16.57
2018-11-10T05:06:51.092Z,16.77
2018-11-10T05:09:19.347Z,16.97
2018-11-10T05:11:47.549Z,16.73
2018-11-10T05:14:15.674Z,15.57
2018-11-10T05:16:43.812Z,17.60
2018-11-10T05:19:11.936Z,16.90
2018-11-10T05:21:40.096Z,18.00
2018-11-10T05:24:08.272Z,18.13
2018-11-10T05:26:36.416Z,17.13
2018-11-10T05:29:05.766Z,16.80
2018-11-10T05:31:33.973Z,16.40
2018-11-10T05:34:02.104Z,16.77
2018-11-10T05:36:30.247Z,17.33
2018-11-10T05:38:58.353Z,20.00
2018-11-10T05:41:27.623Z,17.20
2018-11-10T05:43:55.801Z,16.00
2018-11-10T05:46:25.464Z,18.57
2018-11-10T05:48:54.238Z,17.17
2018-11-10T05:51:22.413Z,16.47
2018-11-10T05:53:50.766Z,16.80
2018-11-10T05:56:19.048Z,16.90
2018-11-10T05:58:47.257Z,17.57
2018-11-10T06:01:15.435Z,17.07
2018-11-10T06:03:49.674Z,16.67
2018-11-10T06:06:17.860Z,16.27
2018-11-10T06:08:46.018Z,16.93
2018-11-10T06:11:14.823Z,15.57
2018-11-10T06:14:06.415Z,17.83
2018-11-10T06:16:34.580Z,17.07
2018-11-10T06:19:02.758Z,16.87
2018-11-10T06:21:30.995Z,17.67
2018-11-10T06:23:59.216Z,17.13
2018-11-10T06:26:27.995Z,17.73
2018-11-10T06:28:56.128Z,17.37
2018-11-10T06:31:24.843Z,16.80
2018-11-10T06:33:54.180Z,17.60
2018-11-10T06:36:22.418Z,18.27
2018-11-10T06:38:50.539Z,18.77
2018-11-10T06:41:18.726Z,17.30
2018-11-10T06:43:46.959Z,19.17
2018-11-10T06:46:15.077Z,18.63
2018-11-10T06:48:43.189Z,18.63
2018-11-10T06:51:11.430Z,18.30
2018-11-10T06:53:39.549Z,18.27
2018-11-10T06:56:07.774Z,18.23
2018-11-10T06:58:35.990Z,19.00
2018-11-10T07:01:04.668Z,18.87
2018-11-10T07:03:32.837Z,18.63
2018-11-10T07:06:01.004Z,18.77
2018-11-10T07:08:29.084Z,19.93
2018-11-10T07:10:57.288Z,18.70
2018-11-10T07:13:25.418Z,19.13
2018-11-10T07:15:53.626Z,18.20
2018-11-10T07:18:21.783Z,18.73
2018-11-10T07:20:51.785Z,19.70
2018-11-10T07:23:20.193Z,20.40
2018-11-10T07:25:48.403Z,19.53
2018-11-10T07:28:16.539Z,19.07
2018-11-10T07:30:45.388Z,19.80
2018-11-10T07:33:13.599Z,19.23
2018-11-10T07:35:41.770Z,20.10
2018-11-10T07:38:09.947Z,20.37
2018-11-10T07:40:38.247Z,20.63
2018-11-10T07:43:06.464Z,20.43
2018-11-10T07:45:34.584Z,19.80
2018-11-10T07:48:02.758Z,21.77
2018-11-10T07:50:30.938Z,21.93
2018-11-10T07:53:13.000Z,20.70
2018-11-10T07:55:41.250Z,21.87
2018-11-10T07:58:09.829Z,22.07
2018-11-10T08:00:38.045Z,22.37
2018-11-10T08:03:06.536Z,21.80
2018-11-10T08:05:34.687Z,21.33
2018-11-10T08:08:02.990Z,20.23
2018-11-10T08:10:31.140Z,21.50
2018-11-10T08:12:59.351Z,22.07
2018-11-10T08:15:28.740Z,20.57
2018-11-10T08:17:56.845Z,21.93
2018-11-10T08:20:25.076Z,21.00
2018-11-10T08:22:53.273Z,21.20
2018-11-10T08:25:21.434Z,20.30
2018-11-10T08:27:49.615Z,20.27
2018-11-10T08:30:17.743Z,20.37
2018-11-10T08:32:45.969Z,19.97
2018-11-10T08:35:14.993Z,20.03
2018-11-10T08:37:43.673Z,21.37
2018-11-10T08:40:14.179Z,19.13
2018-11-10T08:42:42.391Z,19.47
2018-11-10T08:45:11.832Z,19.60
2018-11-10T08:47:40.693Z,20.97
2018-11-10T08:50:10.044Z,19.60
2018-11-10T08:52:39.246Z,19.43
2018-11-10T08:55:08.439Z,20.73
2018-11-10T08:57:36.703Z,21.40
2018-11-10T09:00:06.398Z,20.87
2018-11-10T09:02:35.103Z,21.23
2018-11-10T09:05:03.529Z,21.43
2018-11-10T09:07:31.658Z,20.53
2018-11-10T09:10:01.203Z,19.67
2018-11-10T09:12:29.292Z,19.77
2018-11-10T09:14:57.542Z,19.93
2018-11-10T09:17:25.764Z,20.87
2018-11-10T09:19:53.975Z,23.23
2018-11-10T09:22:22.117Z,21.73
2018-11-10T09:24:50.290Z,19.97
2018-11-10T09:27:18.615Z,18.47
2018-11-10T09:29:46.812Z,18.50
2018-11-10T09:32:14.963Z,20.77
2018-11-10T09:34:43.227Z,21.67
2018-11-10T09:37:11.824Z,21.70
2018-11-10T09:39:40.053Z,20.53
2018-11-10T09:42:08.354Z,19.57
2018-11-10T09:44:36.495Z,19.53
2018-11-10T09:47:07.671Z,20.37
2018-11-10T09:49:36.179Z,18.70
2018-11-10T09:52:04.432Z,19.73
2018-11-10T09:54:33.049Z,17.73
2018-11-10T09:57:01.321Z,22.00
2018-11-10T09:59:30.051Z,21.20
2018-11-10T10:01:58.731Z,20.07
2018-11-10T10:04:26.834Z,21.17
2018-11-10T10:06:55.200Z,18.53
2018-11-10T10:09:23.634Z,21.20
2018-11-10T10:11:51.894Z,21.70
2018-11-10T10:14:20.233Z,21.10
2018-11-10T10:16:49.116Z,20.53
2018-11-10T10:19:17.618Z,20.33
2018-11-10T10:21:46.285Z,19.73
2018-11-10T10:24:15.257Z,22.97
2018-11-10T10:26:43.547Z,23.27
2018-11-10T10:29:12.042Z,22.30
2018-11-10T10:31:40.941Z,21.60
2018-11-10T10:34:09.881Z,20.90
2018-11-10T10:36:38.014Z,24.10
2018-11-10T10:39:08.420Z,22.50
2018-11-10T10:41:37.234Z,19.83
2018-11-10T10:44:06.737Z,22.30
2018-11-10T10:46:35.106Z,21.87
2018-11-10T10:49:10.783Z,24.90
2018-11-10T10:51:41.688Z,20.83
2018-11-10T10:54:10.381Z,20.57
2018-11-10T10:56:42.097Z,22.00
2018-11-10T10:59:13.516Z,20.97
2018-11-10T11:01:49.814Z,20.70
2018-11-10T11:04:24.973Z,22.23
2018-11-10T11:06:54.385Z,19.60
2018-11-10T11:09:22.674Z,21.60
2018-11-10T11:11:56.734Z,21.03
2018-11-10T11:14:24.999Z,21.00
2018-11-10T11:16:53.200Z,20.17
2018-11-10T11:19:21.374Z,20.80
2018-11-10T11:21:49.596Z,21.20
2018-11-10T11:24:17.751Z,20.57
2018-11-10T11:26:45.947Z,20.50
2018-11-10T11:29:14.248Z,21.33
2018-11-10T11:31:42.441Z,21.03
2018-11-10T11:34:10.594Z,22.70
2018-11-10T11:36:39.332Z,22.20
2018-11-10T11:39:10.370Z,20.20
2018-11-10T11:41:38.934Z,22.30
2018-11-10T11:44:07.084Z,22.33
2018-11-10T11:46:35.307Z,21.03
2018-11-10T11:49:03.460Z,21.53
2018-11-10T11:51:31.685Z,21.03
2018-11-10T11:54:00.135Z,21.97
2018-11-10T11:56:28.349Z,19.93
2018-11-10T11:58:56.599Z,20.57
2018-11-10T12:01:25.218Z,19.70
2018-11-10T12:03:53.457Z,19.30
2018-11-10T12:06:21.599Z,21.60
2018-11-10T12:08:50.762Z,20.60
2018-11-10T12:11:19.172Z,19.50
2018-11-10T12:13:57.465Z,20.97
2018-11-10T12:16:27.673Z,20.37
2018-11-10T12:18:53.931Z,19.73
2018-11-10T12:21:22.790Z,21.73
2018-11-10T12:23:51.097Z,21.50
2018-11-10T12:26:24.177Z,20.80
2018-11-10T12:28:53.984Z,20.93
2018-11-10T12:31:25.297Z,18.97
2018-11-10T12:33:53.525Z,21.03
2018-11-10T12:36:21.931Z,19.87
2018-11-10T12:38:50.222Z,21.77
2018-11-10T12:41:18.394Z,22.17
2018-11-10T12:43:46.662Z,20.83
2018-11-10T12:46:15.821Z,22.03
2018-11-10T12:48:44.326Z,21.03
2018-11-10T12:51:13.822Z,21.97
2018-11-10T12:53:42.076Z,21.57
2018-11-10T12:56:10.322Z,20.97
2018-11-10T12:58:38.694Z,22.13
2018-11-10T13:01:06.856Z,21.73
2018-11-10T13:03:35.214Z,19.90
2018-11-10T13:06:03.514Z,21.20
2018-11-10T13:08:32.419Z,20.67
2018-11-10T13:11:00.831Z,19.87
2018-11-10T13:13:29.148Z,21.30
2018-11-10T13:15:58.110Z,22.17
2018-11-10T13:18:26.552Z,21.27
2018-11-10T13:20:54.867Z,21.00
2018-11-10T13:23:23.658Z,20.93
2018-11-10T13:25:52.809Z,21.87
2018-11-10T13:28:21.989Z,22.53
2018-11-10T13:30:52.048Z,23.60
2018-11-10T13:33:21.468Z,22.43
2018-11-10T13:35:50.963Z,22.83
2018-11-10T13:38:19.824Z,22.80
2018-11-10T13:40:48.979Z,21.83
2018-11-10T13:43:18.362Z,22.10
2018-11-10T13:45:46.540Z,22.47
2018-11-10T13:48:14.688Z,22.40
2018-11-10T13:50:43.024Z,23.23
2018-11-10T13:53:11.019Z,24.20
2018-11-10T13:55:39.239Z,22.00
2018-11-10T13:58:07.314Z,23.47
2018-11-10T14:00:35.462Z,23.00
2018-11-10T14:03:08.615Z,22.33
2018-11-10T14:05:36.810Z,22.90
2018-11-10T14:08:05.482Z,22.17
2018-11-10T14:10:33.724Z,21.57
2018-11-10T14:13:01.905Z,23.50
2018-11-10T14:15:30.099Z,23.27
2018-11-10T14:17:58.211Z,23.10
2018-11-10T14:20:26.380Z,23.30
2018-11-10T14:22:55.065Z,22.23
2018-11-10T14:25:23.249Z,22.80
2018-11-10T14:27:51.464Z,22.80
2018-11-10T14:30:19.636Z,22.97
2018-11-10T14:32:57.554Z,23.47
2018-11-10T14:35:25.913Z,22.93
2018-11-10T14:37:54.031Z,21.07
2018-11-10T14:40:22.215Z,21.47
2018-11-10T14:42:50.435Z,22.40
2018-11-10T14:45:19.283Z,22.07
2018-11-10T14:47:47.554Z,22.00
2018-11-10T14:50:16.542Z,20.57
2018-11-10T14:52:44.945Z,21.97
2018-11-10T14:55:13.478Z,20.63
2018-11-10T14:57:44.092Z,21.50
2018-11-10T15:00:16.610Z,24.03
2018-11-10T15:02:44.835Z,22.37
2018-11-10T15:05:13.300Z,24.37
2018-11-10T15:07:44.436Z,21.97
2018-11-10T15:10:13.898Z,21.73
2018-11-10T15:12:44.833Z,20.67
2018-11-10T15:15:14.614Z,20.03
2018-11-10T15:17:43.037Z,21.20
2018-11-10T15:20:12.589Z,21.83
2018-11-10T15:23:10.158Z,19.97
2018-11-10T15:25:38.317Z,20.97
2018-11-10T15:28:06.968Z,21.90
2018-11-10T15:30:35.173Z,21.30
2018-11-10T15:33:03.392Z,21.93
2018-11-10T15:35:31.594Z,21.40
2018-11-10T15:37:59.810Z,20.90
2018-11-10T15:40:28.135Z,20.07
2018-11-10T15:42:56.332Z,20.47
2018-11-10T15:45:24.552Z,20.10
2018-11-10T15:47:52.768Z,21.90
2018-11-10T15:50:20.941Z,21.70
2018-11-10T15:52:49.137Z,20.97
2018-11-10T15:55:17.453Z,22.13
2018-11-10T15:57:45.786Z,20.37
2018-11-10T16:00:15.610Z,20.93
2018-11-10T16:02:43.885Z,22.40
2018-11-10T16:05:12.742Z,21.97
2018-11-10T16:07:40.935Z,21.20
2018-11-10T16:10:09.262Z,20.50
2018-11-10T16:12:37.849Z,20.43
2018-11-10T16:15:08.783Z,23.17
2018-11-10T16:17:37.200Z,27.80
2018-11-10T16:20:09.270Z,20.10
2018-11-10T16:22:37.561Z,20.60
2018-11-10T16:25:07.398Z,20.20
2018-11-10T16:27:35.661Z,21.00
2018-11-10T16:30:06.001Z,21.60
2018-11-10T16:32:34.241Z,21.90
2018-11-10T16:35:02.442Z,19.60
2018-11-10T16:37:31.367Z,21.40
2018-11-10T16:39:59.543Z,20.13
2018-11-10T16:42:27.838Z,21.33
2018-11-10T16:44:56.080Z,19.30
2018-11-10T16:47:24.263Z,20.37
2018-11-10T16:49:52.495Z,19.60
2018-11-10T16:52:20.687Z,17.57
2018-11-10T16:54:48.941Z,19.17
2018-11-10T16:57:17.156Z,18.63
2018-11-10T16:59:45.310Z,17.10
2018-11-10T17:02:13.584Z,19.10
2018-11-10T17:04:41.631Z,18.83
2018-11-10T17:07:10.864Z,18.93
2018-11-10T17:09:38.973Z,19.37
2018-11-10T17:12:07.173Z,20.10
2018-11-10T17:14:35.371Z,19.20
2018-11-10T17:17:03.537Z,19.63
2018-11-10T17:19:32.016Z,21.37
2018-11-10T17:22:00.596Z,21.17
2018-11-10T17:24:28.457Z,18.53
2018-11-10T17:26:57.237Z,18.90
2018-11-10T17:29:25.352Z,20.77
2018-11-10T17:31:53.594Z,20.13
2018-11-10T17:34:21.877Z,19.37
2018-11-10T17:36:50.090Z,20.70
2018-11-10T17:39:18.385Z,19.10
2018-11-10T17:41:46.594Z,20.33
2018-11-10T17:44:14.896Z,18.80
2018-11-10T17:46:43.132Z,18.73
2018-11-10T17:49:11.395Z,18.20
2018-11-10T17:51:39.603Z,19.07
2018-11-10T17:54:08.746Z,18.60
2018-11-10T17:56:36.982Z,18.50
2018-11-10T17:59:05.692Z,17.57
2018-11-10T18:01:34.105Z,18.97
2018-11-10T18:04:02.808Z,17.90
2018-11-10T18:06:30.925Z,19.07
2018-11-10T18:08:59.301Z,19.27
2018-11-10T18:11:27.518Z,19.13
2018-11-10T18:13:55.844Z,20.30
2018-11-10T18:16:24.114Z,22.47
2018-11-10T18:18:52.365Z,21.27
2018-11-10T18:21:20.573Z,19.63
2018-11-10T18:23:48.838Z,20.90
2018-11-10T18:26:17.040Z,21.93
2018-11-10T18:28:45.289Z,19.33
2018-11-10T18:31:13.492Z,20.70
2018-11-10T18:33:41.768Z,19.73
2018-11-10T18:36:09.967Z,21.00
2018-11-10T18:38:38.208Z,20.57
2018-11-10T18:41:06.434Z,20.80
2018-11-10T18:43:34.753Z,20.20
2018-11-10T18:46:03.053Z,21.80
2018-11-10T18:48:31.340Z,19.07
2018-11-10T18:50:59.546Z,21.80
2018-11-10T18:53:27.901Z,27.30
2018-11-10T18:55:56.119Z,21.53
2018-11-10T18:58:24.326Z,29.73
2018-11-10T19:00:53.459Z,23.97
2018-11-10T19:03:21.867Z,21.80
2018-11-10T19:05:50.144Z,18.90
2018-11-10T19:08:18.313Z,20.27
2018-11-10T19:10:46.511Z,20.43
2018-11-10T19:13:14.644Z,19.37
2018-11-10T19:15:42.898Z,20.03
2018-11-10T19:18:11.152Z,19.87
2018-11-10T19:20:40.009Z,19.57
2018-11-10T19:23:08.388Z,19.53
2018-11-10T19:25:36.524Z,20.90
2018-11-10T19:28:04.975Z,20.13
2018-11-10T19:30:33.159Z,20.27
2018-11-10T19:33:01.333Z,21.50
2018-11-10T19:35:29.517Z,20.03
2018-11-10T19:37:57.762Z,18.57
2018-11-10T19:40:25.962Z,19.57
2018-11-10T19:42:54.200Z,17.73
2018-11-10T19:45:22.488Z,18.43
2018-11-10T19:47:50.704Z,19.10
2018-11-10T19:50:19.704Z,20.30
2018-11-10T19:52:47.898Z,19.30
2018-11-10T19:55:16.820Z,18.27
2018-11-10T19:57:45.180Z,18.83
2018-11-10T20:00:17.598Z,18.70
2018-11-10T20:02:51.063Z,17.47
2018-11-10T20:05:19.301Z,18.13
2018-11-10T20:07:47.937Z,18.03
2018-11-10T20:10:16.294Z,19.23
2018-11-10T20:12:44.877Z,19.70
2018-11-10T20:15:14.074Z,20.10
2018-11-10T20:17:42.563Z,18.80
2018-11-10T20:20:11.878Z,18.83
2018-11-10T20:22:40.634Z,19.53
2018-11-10T20:25:10.936Z,19.77
2018-11-10T20:27:39.212Z,20.57
2018-11-10T20:30:10.747Z,20.43
2018-11-10T20:32:39.035Z,19.93
2018-11-10T20:35:10.047Z,18.73
2018-11-10T20:37:39.106Z,20.67
2018-11-10T20:40:09.279Z,30.40
2018-11-10T20:42:46.925Z,20.10
2018-11-10T20:45:18.696Z,20.30
2018-11-10T20:47:47.175Z,24.30
2018-11-10T20:50:15.672Z,29.43
2018-11-10T20:52:45.023Z,29.40
2018-11-10T20:55:14.329Z,24.27
2018-11-10T20:57:42.521Z,19.53
2018-11-10T21:00:14.297Z,23.93
2018-11-10T21:02:43.633Z,22.37
2018-11-10T21:05:12.294Z,20.03
2018-11-10T21:07:40.529Z,20.27
2018-11-10T21:10:12.474Z,19.10
2018-11-10T21:12:42.740Z,24.83
2018-11-10T21:15:11.568Z,22.47
2018-11-10T21:17:40.705Z,20.73
2018-11-10T21:20:10.069Z,21.03
2018-11-10T21:22:38.890Z,20.33
2018-11-10T21:25:09.275Z,19.33
2018-11-10T21:27:37.712Z,18.70
2018-11-10T21:30:07.989Z,19.60
2018-11-10T21:32:36.358Z,19.90
2018-11-10T21:35:05.490Z,20.30
2018-11-10T21:37:33.750Z,20.50
2018-11-10T21:40:01.910Z,21.70
2018-11-10T21:42:30.190Z,24.30
2018-11-10T21:44:58.666Z,26.03
2018-11-10T21:47:26.907Z,27.17
2018-11-10T21:49:55.211Z,28.93
2018-11-10T21:52:23.416Z,23.57
2018-11-10T21:54:51.623Z,24.93
2018-11-10T21:57:19.815Z,21.43
2018-11-10T21:59:47.989Z,20.83
2018-11-10T22:02:16.225Z,21.20
2018-11-10T22:04:44.361Z,19.47
2018-11-10T22:07:12.499Z,19.93
2018-11-10T22:09:40.643Z,19.80
2018-11-10T22:12:09.029Z,19.67
2018-11-10T22:14:37.507Z,25.97
2018-11-10T22:17:05.775Z,20.47
2018-11-10T22:19:33.996Z,20.37
2018-11-10T22:22:20.783Z,19.77
2018-11-10T22:24:48.917Z,26.53
2018-11-10T22:27:17.086Z,24.00
2018-11-10T22:29:45.315Z,21.30
2018-11-10T22:32:18.580Z,22.00
2018-11-10T22:34:46.824Z,23.17
2018-11-10T22:37:15.041Z,19.33
2018-11-10T22:39:43.204Z,19.83
2018-11-10T22:42:11.319Z,19.60
2018-11-10T22:44:39.524Z,19.93
2018-11-10T22:47:07.762Z,18.20
2018-11-10T22:49:35.944Z,20.27
2018-11-10T22:52:04.764Z,19.20
2018-11-10T22:54:33.555Z,20.50
2018-11-10T22:57:01.753Z,19.93
2018-11-10T22:59:29.915Z,18.93
2018-11-10T23:01:58.145Z,19.67
2018-11-10T23:04:26.314Z,20.93
2018-11-10T23:06:54.485Z,20.53
2018-11-10T23:09:22.758Z,21.50
2018-11-10T23:11:50.931Z,20.17
2018-11-10T23:14:19.080Z,21.50
2018-11-10T23:16:48.305Z,21.17
2018-11-10T23:19:16.468Z,20.67
2018-11-10T23:21:44.651Z,19.97
2018-11-10T23:24:16.030Z,20.50
2018-11-10T23:26:44.260Z,20.00
2018-11-10T23:29:12.462Z,20.10
2018-11-10T23:31:40.666Z,19.37
2018-11-10T23:34:08.880Z,19.10
2018-11-10T23:36:37.028Z,18.93
2018-11-10T23:39:09.311Z,19.33
2018-11-10T23:41:38.058Z,18.33
2018-11-10T23:44:06.338Z,20.00
2018-11-10T23:46:34.550Z,19.77
2018-11-10T23:49:02.659Z,19.77
2018-11-10T23:51:30.797Z,19.77
2018-11-10T23:53:59.099Z,19.57
2018-11-10T23:56:27.244Z,19.00
2018-11-10T23:58:55.501Z,19.47
